sensor_id;sensor_type;location;lat;lon;timestamp;pressure;altitude;pressure_sealevel;temperature;humidity
68634;BME280;55625;47.072;22.192;2023-04-27T00:00:47;99740.50;;;6.50;74.07
68634;BME280;55625;47.072;22.192;2023-04-27T00:03:12;99744.22;;;6.44;73.17
68634;BME280;55625;47.072;22.192;2023-04-27T00:05:38;99745.34;;;6.50;72.10
68634;BME280;55625;47.072;22.192;2023-04-27T00:08:05;99743.44;;;6.43;71.66
68634;BME280;55625;47.072;22.192;2023-04-27T00:10:31;99745.47;;;6.39;72.79
68634;BME280;55625;47.072;22.192;2023-04-27T00:12:57;99749.50;;;6.38;74.35
68634;BME280;55625;47.072;22.192;2023-04-27T00:15:23;99751.22;;;6.32;74.50
68634;BME280;55625;47.072;22.192;2023-04-27T00:17:49;99744.78;;;6.32;73.56
68634;BME280;55625;47.072;22.192;2023-04-27T00:20:16;99753.25;;;6.32;72.76
68634;BME280;55625;47.072;22.192;2023-04-27T00:22:42;99747.97;;;6.34;72.83
68634;BME280;55625;47.072;22.192;2023-04-27T00:25:08;99748.41;;;6.32;73.34
68634;BME280;55625;47.072;22.192;2023-04-27T00:27:34;99758.56;;;6.26;73.12
68634;BME280;55625;47.072;22.192;2023-04-27T00:30:00;99754.16;;;6.25;72.96
68634;BME280;55625;47.072;22.192;2023-04-27T00:32:26;99751.31;;;6.25;72.64
68634;BME280;55625;47.072;22.192;2023-04-27T00:34:51;99752.88;;;6.30;72.92
68634;BME280;55625;47.072;22.192;2023-04-27T00:37:17;99742.41;;;6.30;74.32
68634;BME280;55625;47.072;22.192;2023-04-27T00:39:44;99753.72;;;6.27;72.74
68634;BME280;55625;47.072;22.192;2023-04-27T00:42:10;99754.53;;;6.27;74.13
68634;BME280;55625;47.072;22.192;2023-04-27T00:44:39;99737.66;;;6.23;73.84
68634;BME280;55625;47.072;22.192;2023-04-27T00:47:06;99743.28;;;6.23;72.89
68634;BME280;55625;47.072;22.192;2023-04-27T00:49:32;99739.41;;;6.14;73.45
68634;BME280;55625;47.072;22.192;2023-04-27T00:51:58;99745.03;;;6.14;73.55
68634;BME280;55625;47.072;22.192;2023-04-27T00:54:25;99745.03;;;6.14;74.39
68634;BME280;55625;47.072;22.192;2023-04-27T00:56:52;99733.84;;;6.07;74.27
68634;BME280;55625;47.072;22.192;2023-04-27T00:59:18;99745.50;;;6.09;74.77
68634;BME280;55625;47.072;22.192;2023-04-27T01:01:48;99753.63;;;6.03;74.71
68634;BME280;55625;47.072;22.192;2023-04-27T01:04:15;99756.38;;;6.07;74.56
68634;BME280;55625;47.072;22.192;2023-04-27T01:06:42;99765.22;;;6.09;74.10
68634;BME280;55625;47.072;22.192;2023-04-27T01:09:08;99761.56;;;6.12;74.78
68634;BME280;55625;47.072;22.192;2023-04-27T01:11:36;99771.56;;;6.16;75.20
68634;BME280;55625;47.072;22.192;2023-04-27T01:14:05;99766.75;;;6.17;74.46
68634;BME280;55625;47.072;22.192;2023-04-27T01:16:32;99761.84;;;6.21;73.94
68634;BME280;55625;47.072;22.192;2023-04-27T01:18:59;99767.13;;;6.19;75.03
68634;BME280;55625;47.072;22.192;2023-04-27T01:21:25;99769.94;;;6.19;74.45
68634;BME280;55625;47.072;22.192;2023-04-27T01:23:52;99766.25;;;6.22;74.96
68634;BME280;55625;47.072;22.192;2023-04-27T01:26:18;99766.63;;;6.24;74.71
68634;BME280;55625;47.072;22.192;2023-04-27T01:28:44;99766.63;;;6.24;74.48
68634;BME280;55625;47.072;22.192;2023-04-27T01:31:10;99768.22;;;6.25;74.04
68634;BME280;55625;47.072;22.192;2023-04-27T01:33:37;99765.78;;;6.27;74.14
68634;BME280;55625;47.072;22.192;2023-04-27T01:36:03;99776.69;;;6.25;74.77
68634;BME280;55625;47.072;22.192;2023-04-27T01:38:31;99770.19;;;6.28;73.55
68634;BME280;55625;47.072;22.192;2023-04-27T01:40:57;99775.84;;;6.28;74.86
68634;BME280;55625;47.072;22.192;2023-04-27T01:43:28;99776.22;;;6.30;74.17
68634;BME280;55625;47.072;22.192;2023-04-27T01:45:54;99774.19;;;6.31;75.24
68634;BME280;55625;47.072;22.192;2023-04-27T01:48:20;99774.25;;;6.27;75.07
68634;BME280;55625;47.072;22.192;2023-04-27T01:50:46;99777.84;;;6.28;76.01
68634;BME280;55625;47.072;22.192;2023-04-27T01:53:12;99781.53;;;6.25;77.18
68634;BME280;55625;47.072;22.192;2023-04-27T01:55:38;99785.13;;;6.25;76.86
68634;BME280;55625;47.072;22.192;2023-04-27T01:58:04;99787.59;;;6.23;77.74
68634;BME280;55625;47.072;22.192;2023-04-27T02:00:30;99777.97;;;6.20;77.97
68634;BME280;55625;47.072;22.192;2023-04-27T02:02:56;99777.16;;;6.20;78.58
68634;BME280;55625;47.072;22.192;2023-04-27T02:05:25;99777.63;;;6.15;78.68
68634;BME280;55625;47.072;22.192;2023-04-27T02:07:50;99785.28;;;6.14;79.37
68634;BME280;55625;47.072;22.192;2023-04-27T02:10:16;99790.19;;;6.07;78.31
68634;BME280;55625;47.072;22.192;2023-04-27T02:12:42;99776.16;;;6.03;78.62
68634;BME280;55625;47.072;22.192;2023-04-27T02:15:08;99786.25;;;6.01;79.00
68634;BME280;55625;47.072;22.192;2023-04-27T02:17:34;99777.84;;;5.97;79.31
68634;BME280;55625;47.072;22.192;2023-04-27T02:20:00;99783.97;;;5.88;79.25
68634;BME280;55625;47.072;22.192;2023-04-27T02:22:26;99773.66;;;5.75;79.65
68634;BME280;55625;47.072;22.192;2023-04-27T02:24:52;99785.00;;;5.68;80.19
68634;BME280;55625;47.072;22.192;2023-04-27T02:27:18;99788.28;;;5.63;79.53
68634;BME280;55625;47.072;22.192;2023-04-27T02:29:44;99785.50;;;5.59;78.71
68634;BME280;55625;47.072;22.192;2023-04-27T02:32:10;99800.41;;;5.56;78.91
68634;BME280;55625;47.072;22.192;2023-04-27T02:34:35;99805.25;;;5.55;79.29
68634;BME280;55625;47.072;22.192;2023-04-27T02:37:01;99810.91;;;5.52;80.01
68634;BME280;55625;47.072;22.192;2023-04-27T02:39:27;99801.69;;;5.48;79.86
68634;BME280;55625;47.072;22.192;2023-04-27T02:41:53;99809.31;;;5.47;80.00
68634;BME280;55625;47.072;22.192;2023-04-27T02:44:19;99807.75;;;5.43;78.95
68634;BME280;55625;47.072;22.192;2023-04-27T02:46:44;99811.38;;;5.43;78.85
68634;BME280;55625;47.072;22.192;2023-04-27T02:49:10;99809.81;;;5.39;77.04
68634;BME280;55625;47.072;22.192;2023-04-27T02:51:36;99811.84;;;5.38;78.10
68634;BME280;55625;47.072;22.192;2023-04-27T02:54:02;99813.09;;;5.34;78.83
68634;BME280;55625;47.072;22.192;2023-04-27T02:56:28;99825.09;;;5.38;79.21
68634;BME280;55625;47.072;22.192;2023-04-27T02:58:54;99819.47;;;5.38;79.60
68634;BME280;55625;47.072;22.192;2023-04-27T03:01:20;99819.06;;;5.39;78.69
68634;BME280;55625;47.072;22.192;2023-04-27T03:03:46;99826.69;;;5.39;78.63
68634;BME280;55625;47.072;22.192;2023-04-27T03:06:13;99833.53;;;5.38;79.45
68634;BME280;55625;47.072;22.192;2023-04-27T03:08:39;99835.97;;;5.36;79.85
68634;BME280;55625;47.072;22.192;2023-04-27T03:11:05;99838.38;;;5.37;79.59
68634;BME280;55625;47.072;22.192;2023-04-27T03:13:31;99839.94;;;5.42;80.01
68634;BME280;55625;47.072;22.192;2023-04-27T03:16:09;99836.28;;;5.45;79.93
68634;BME280;55625;47.072;22.192;2023-04-27T03:18:39;99841.53;;;5.43;79.92
68634;BME280;55625;47.072;22.192;2023-04-27T03:21:10;99847.97;;;5.43;78.47
68634;BME280;55625;47.072;22.192;2023-04-27T03:23:37;99845.16;;;5.43;79.80
68634;BME280;55625;47.072;22.192;2023-04-27T03:26:11;99847.16;;;5.43;79.88
68634;BME280;55625;47.072;22.192;2023-04-27T03:28:38;99850.34;;;5.45;79.84
68634;BME280;55625;47.072;22.192;2023-04-27T03:31:09;99860.41;;;5.46;79.11
68634;BME280;55625;47.072;22.192;2023-04-27T03:33:35;99855.16;;;5.48;78.27
68634;BME280;55625;47.072;22.192;2023-04-27T03:36:03;99863.97;;;5.50;78.17
68634;BME280;55625;47.072;22.192;2023-04-27T03:38:29;99863.19;;;5.49;77.56
68634;BME280;55625;47.072;22.192;2023-04-27T03:40:56;99866.00;;;5.53;78.83
68634;BME280;55625;47.072;22.192;2023-04-27T03:43:23;99869.22;;;5.51;78.89
68634;BME280;55625;47.072;22.192;2023-04-27T03:45:49;99868.41;;;5.51;79.39
68634;BME280;55625;47.072;22.192;2023-04-27T03:48:15;99872.84;;;5.52;79.19
68634;BME280;55625;47.072;22.192;2023-04-27T03:50:42;99882.09;;;5.52;78.18
68634;BME280;55625;47.072;22.192;2023-04-27T03:53:09;99881.28;;;5.52;77.64
68634;BME280;55625;47.072;22.192;2023-04-27T03:55:39;99871.22;;;5.51;76.19
68634;BME280;55625;47.072;22.192;2023-04-27T03:58:06;99880.06;;;5.49;76.31
68634;BME280;55625;47.072;22.192;2023-04-27T04:00:36;99879.66;;;5.51;76.72
68634;BME280;55625;47.072;22.192;2023-04-27T04:03:03;99880.94;;;5.43;76.74
68634;BME280;55625;47.072;22.192;2023-04-27T04:05:29;99882.50;;;5.47;75.68
68634;BME280;55625;47.072;22.192;2023-04-27T04:07:56;99882.03;;;5.56;77.82
68634;BME280;55625;47.072;22.192;2023-04-27T04:10:23;99890.41;;;5.63;75.27
68634;BME280;55625;47.072;22.192;2023-04-27T04:12:49;99886.38;;;5.64;76.71
68634;BME280;55625;47.072;22.192;2023-04-27T04:15:15;99884.75;;;5.67;76.06
68634;BME280;55625;47.072;22.192;2023-04-27T04:17:41;99895.22;;;5.66;75.44
68634;BME280;55625;47.072;22.192;2023-04-27T04:20:07;99896.84;;;5.64;75.41
68634;BME280;55625;47.072;22.192;2023-04-27T04:22:36;99904.91;;;5.61;75.81
68634;BME280;55625;47.072;22.192;2023-04-27T04:25:02;99899.22;;;5.69;74.16
68634;BME280;55625;47.072;22.192;2023-04-27T04:27:28;99907.25;;;5.70;75.34
68634;BME280;55625;47.072;22.192;2023-04-27T04:29:54;99913.13;;;5.86;73.27
68634;BME280;55625;47.072;22.192;2023-04-27T04:32:20;99918.81;;;5.79;72.51
68634;BME280;55625;47.072;22.192;2023-04-27T04:34:48;99916.09;;;5.69;73.83
68634;BME280;55625;47.072;22.192;2023-04-27T04:37:17;99902.44;;;5.67;73.70
68634;BME280;55625;47.072;22.192;2023-04-27T04:39:43;99910.50;;;5.65;73.59
68634;BME280;55625;47.072;22.192;2023-04-27T04:42:09;99904.84;;;5.69;73.49
68634;BME280;55625;47.072;22.192;2023-04-27T04:44:35;99910.44;;;5.72;73.37
68634;BME280;55625;47.072;22.192;2023-04-27T04:47:01;99921.22;;;5.84;71.83
68634;BME280;55625;47.072;22.192;2023-04-27T04:49:27;99919.19;;;5.85;71.51
68634;BME280;55625;47.072;22.192;2023-04-27T04:51:53;99923.13;;;5.95;71.54
68634;BME280;55625;47.072;22.192;2023-04-27T04:54:19;99930.28;;;6.03;71.00
68634;BME280;55625;47.072;22.192;2023-04-27T04:56:44;99936.22;;;6.12;68.79
68634;BME280;55625;47.072;22.192;2023-04-27T04:59:11;99930.13;;;6.20;67.89
68634;BME280;55625;47.072;22.192;2023-04-27T05:01:36;99939.66;;;6.30;68.48
68634;BME280;55625;47.072;22.192;2023-04-27T05:04:02;99937.94;;;6.43;69.38
68634;BME280;55625;47.072;22.192;2023-04-27T05:06:28;99932.28;;;6.43;68.44
68634;BME280;55625;47.072;22.192;2023-04-27T05:08:54;99940.94;;;6.60;66.97
68634;BME280;55625;47.072;22.192;2023-04-27T05:11:20;99939.94;;;6.77;65.43
68634;BME280;55625;47.072;22.192;2023-04-27T05:13:46;99939.16;;;7.03;66.83
68634;BME280;55625;47.072;22.192;2023-04-27T05:16:12;99948.91;;;7.26;65.95
68634;BME280;55625;47.072;22.192;2023-04-27T05:18:38;99938.06;;;7.24;64.81
68634;BME280;55625;47.072;22.192;2023-04-27T05:21:04;99944.19;;;7.46;62.40
68634;BME280;55625;47.072;22.192;2023-04-27T05:23:30;99937.78;;;7.69;63.41
68634;BME280;55625;47.072;22.192;2023-04-27T05:25:56;99939.19;;;7.81;63.54
68634;BME280;55625;47.072;22.192;2023-04-27T05:28:21;99933.41;;;7.88;61.11
68634;BME280;55625;47.072;22.192;2023-04-27T05:30:47;99934.88;;;7.96;61.09
68634;BME280;55625;47.072;22.192;2023-04-27T05:33:13;99935.06;;;8.08;60.47
68634;BME280;55625;47.072;22.192;2023-04-27T05:35:40;99933.03;;;8.09;60.74
68634;BME280;55625;47.072;22.192;2023-04-27T05:38:05;99934.50;;;8.40;61.25
68634;BME280;55625;47.072;22.192;2023-04-27T05:40:31;99939.13;;;8.51;57.54
68634;BME280;55625;47.072;22.192;2023-04-27T05:42:57;99937.97;;;8.48;57.08
68634;BME280;55625;47.072;22.192;2023-04-27T05:45:23;99944.66;;;8.78;57.82
68634;BME280;55625;47.072;22.192;2023-04-27T05:47:49;99946.59;;;9.00;57.78
68634;BME280;55625;47.072;22.192;2023-04-27T05:50:15;99952.66;;;9.19;57.26
68634;BME280;55625;47.072;22.192;2023-04-27T05:52:41;99955.34;;;9.42;56.16
68634;BME280;55625;47.072;22.192;2023-04-27T05:55:07;99962.66;;;9.59;56.52
68634;BME280;55625;47.072;22.192;2023-04-27T05:57:33;99966.31;;;9.40;52.34
68634;BME280;55625;47.072;22.192;2023-04-27T05:59:59;99967.53;;;9.59;54.21
68634;BME280;55625;47.072;22.192;2023-04-27T06:02:25;99967.72;;;9.84;56.48
68634;BME280;55625;47.072;22.192;2023-04-27T06:04:51;99966.81;;;10.04;55.91
68634;BME280;55625;47.072;22.192;2023-04-27T06:07:17;99975.16;;;9.94;54.10
68634;BME280;55625;47.072;22.192;2023-04-27T06:09:42;99982.16;;;10.22;54.76
68634;BME280;55625;47.072;22.192;2023-04-27T06:12:08;99977.88;;;9.98;53.06
68634;BME280;55625;47.072;22.192;2023-04-27T06:14:36;99983.84;;;9.87;55.51
68634;BME280;55625;47.072;22.192;2023-04-27T06:17:03;99984.28;;;9.86;56.04
68634;BME280;55625;47.072;22.192;2023-04-27T06:19:28;99979.56;;;10.28;54.97
68634;BME280;55625;47.072;22.192;2023-04-27T06:21:54;99981.44;;;10.18;52.01
68634;BME280;55625;47.072;22.192;2023-04-27T06:24:21;99980.88;;;9.75;54.83
68634;BME280;55625;47.072;22.192;2023-04-27T06:26:48;99984.28;;;9.86;53.80
68634;BME280;55625;47.072;22.192;2023-04-27T06:29:14;99983.03;;;9.87;53.52
68634;BME280;55625;47.072;22.192;2023-04-27T06:31:40;99983.84;;;9.87;52.28
68634;BME280;55625;47.072;22.192;2023-04-27T06:34:06;99992.44;;;9.84;49.71
68634;BME280;55625;47.072;22.192;2023-04-27T06:36:32;99988.63;;;10.23;49.05
68634;BME280;55625;47.072;22.192;2023-04-27T06:38:58;99981.16;;;10.45;47.36
68634;BME280;55625;47.072;22.192;2023-04-27T06:41:25;99983.34;;;10.54;46.40
68634;BME280;55625;47.072;22.192;2023-04-27T06:43:52;99981.44;;;10.64;44.72
68634;BME280;55625;47.072;22.192;2023-04-27T06:46:18;99982.34;;;10.89;47.86
68634;BME280;55625;47.072;22.192;2023-04-27T06:48:45;99987.69;;;11.00;50.50
68634;BME280;55625;47.072;22.192;2023-04-27T06:51:11;99986.63;;;11.23;48.57
68634;BME280;55625;47.072;22.192;2023-04-27T06:53:38;99998.66;;;11.14;48.96
68634;BME280;55625;47.072;22.192;2023-04-27T06:56:06;99997.00;;;10.88;45.95
68634;BME280;55625;47.072;22.192;2023-04-27T06:58:32;99994.13;;;10.30;46.53
68634;BME280;55625;47.072;22.192;2023-04-27T07:00:58;100003.16;;;10.70;47.78
68634;BME280;55625;47.072;22.192;2023-04-27T07:03:24;99994.81;;;10.79;46.07
68634;BME280;55625;47.072;22.192;2023-04-27T07:05:50;100004.81;;;11.26;48.45
68634;BME280;55625;47.072;22.192;2023-04-27T07:08:16;100013.03;;;11.36;48.11
68634;BME280;55625;47.072;22.192;2023-04-27T07:10:42;100014.47;;;11.28;44.37
68634;BME280;55625;47.072;22.192;2023-04-27T07:13:08;100010.94;;;11.24;44.22
68634;BME280;55625;47.072;22.192;2023-04-27T07:15:34;100018.72;;;11.49;44.28
68634;BME280;55625;47.072;22.192;2023-04-27T07:17:59;100013.84;;;11.49;42.33
68634;BME280;55625;47.072;22.192;2023-04-27T07:20:25;100014.78;;;11.72;43.37
68634;BME280;55625;47.072;22.192;2023-04-27T07:22:51;100004.09;;;11.63;42.47
68634;BME280;55625;47.072;22.192;2023-04-27T07:25:18;100012.34;;;10.91;42.10
68634;BME280;55625;47.072;22.192;2023-04-27T07:27:44;100018.22;;;10.83;42.41
68634;BME280;55625;47.072;22.192;2023-04-27T07:30:10;100022.78;;;10.94;42.06
68634;BME280;55625;47.072;22.192;2023-04-27T07:32:39;100021.00;;;11.41;44.06
68634;BME280;55625;47.072;22.192;2023-04-27T07:35:08;100022.47;;;11.59;44.29
68634;BME280;55625;47.072;22.192;2023-04-27T07:37:35;100012.97;;;12.03;42.15
68634;BME280;55625;47.072;22.192;2023-04-27T07:40:05;100023.28;;;12.35;40.59
68634;BME280;55625;47.072;22.192;2023-04-27T07:42:39;100011.63;;;12.42;39.81
68634;BME280;55625;47.072;22.192;2023-04-27T07:45:09;100018.16;;;12.18;41.42
68634;BME280;55625;47.072;22.192;2023-04-27T07:47:36;100022.03;;;12.36;40.54
68634;BME280;55625;47.072;22.192;2023-04-27T07:50:05;100014.88;;;11.68;43.97
68634;BME280;55625;47.072;22.192;2023-04-27T07:52:32;100016.25;;;12.27;42.17
68634;BME280;55625;47.072;22.192;2023-04-27T07:54:58;100009.59;;;12.78;44.31
68634;BME280;55625;47.072;22.192;2023-04-27T07:57:24;100005.81;;;13.02;40.83
68634;BME280;55625;47.072;22.192;2023-04-27T07:59:50;100009.63;;;12.18;42.52
68634;BME280;55625;47.072;22.192;2023-04-27T08:02:15;100005.00;;;11.86;42.88
68634;BME280;55625;47.072;22.192;2023-04-27T08:04:41;100018.16;;;12.30;44.42
68634;BME280;55625;47.072;22.192;2023-04-27T08:07:07;100013.41;;;12.27;42.38
68634;BME280;55625;47.072;22.192;2023-04-27T08:09:33;100008.59;;;12.71;43.71
68634;BME280;55625;47.072;22.192;2023-04-27T08:11:59;100019.53;;;12.26;41.49
68634;BME280;55625;47.072;22.192;2023-04-27T08:14:24;100020.84;;;12.59;42.29
68634;BME280;55625;47.072;22.192;2023-04-27T08:16:50;100020.97;;;12.43;40.48
68634;BME280;55625;47.072;22.192;2023-04-27T08:19:17;100012.06;;;12.54;38.01
68634;BME280;55625;47.072;22.192;2023-04-27T08:21:43;100021.50;;;12.63;39.25
68634;BME280;55625;47.072;22.192;2023-04-27T08:24:09;100008.81;;;12.99;40.12
68634;BME280;55625;47.072;22.192;2023-04-27T08:26:35;100012.97;;;13.20;39.70
68634;BME280;55625;47.072;22.192;2023-04-27T08:29:01;100016.03;;;13.13;39.16
68634;BME280;55625;47.072;22.192;2023-04-27T08:31:27;100020.78;;;13.28;41.15
68634;BME280;55625;47.072;22.192;2023-04-27T08:33:54;100028.69;;;13.55;38.38
68634;BME280;55625;47.072;22.192;2023-04-27T08:36:22;100031.69;;;13.83;38.23
68634;BME280;55625;47.072;22.192;2023-04-27T08:38:53;100024.59;;;13.34;37.92
68634;BME280;55625;47.072;22.192;2023-04-27T08:41:23;100024.09;;;13.27;39.24
68634;BME280;55625;47.072;22.192;2023-04-27T08:43:50;100016.22;;;12.74;37.84
68634;BME280;55625;47.072;22.192;2023-04-27T08:46:20;100028.53;;;12.11;39.61
68634;BME280;55625;47.072;22.192;2023-04-27T08:48:49;100039.75;;;11.51;40.88
68634;BME280;55625;47.072;22.192;2023-04-27T08:51:15;100021.38;;;12.54;41.68
68634;BME280;55625;47.072;22.192;2023-04-27T08:53:53;100023.16;;;13.30;39.56
68634;BME280;55625;47.072;22.192;2023-04-27T08:56:24;100037.91;;;12.59;38.10
68634;BME280;55625;47.072;22.192;2023-04-27T08:58:51;100027.03;;;12.20;39.71
68634;BME280;55625;47.072;22.192;2023-04-27T09:01:17;100033.22;;;11.80;40.24
68634;BME280;55625;47.072;22.192;2023-04-27T09:03:44;100031.50;;;12.08;40.62
68634;BME280;55625;47.072;22.192;2023-04-27T09:06:12;100029.56;;;12.18;38.90
68634;BME280;55625;47.072;22.192;2023-04-27T09:08:49;100032.16;;;11.61;41.38
68634;BME280;55625;47.072;22.192;2023-04-27T09:11:31;100039.69;;;11.93;39.65
68634;BME280;55625;47.072;22.192;2023-04-27T09:14:00;100032.66;;;11.98;39.22
68634;BME280;55625;47.072;22.192;2023-04-27T09:16:28;100026.72;;;12.30;39.07
68634;BME280;55625;47.072;22.192;2023-04-27T09:18:56;100018.91;;;12.78;40.44
68634;BME280;55625;47.072;22.192;2023-04-27T09:21:28;100034.47;;;12.64;39.97
68634;BME280;55625;47.072;22.192;2023-04-27T09:23:55;100040.94;;;12.18;39.71
68634;BME280;55625;47.072;22.192;2023-04-27T09:26:26;100047.47;;;11.38;40.65
68634;BME280;55625;47.072;22.192;2023-04-27T09:28:54;100034.06;;;11.51;40.55
68634;BME280;55625;47.072;22.192;2023-04-27T09:31:35;100031.25;;;11.77;41.31
68634;BME280;55625;47.072;22.192;2023-04-27T09:34:02;100037.34;;;12.52;42.48
68634;BME280;55625;47.072;22.192;2023-04-27T09:36:29;100039.63;;;12.91;41.10
68634;BME280;55625;47.072;22.192;2023-04-27T09:38:57;100024.72;;;13.53;39.29
68634;BME280;55625;47.072;22.192;2023-04-27T09:41:24;100025.56;;;14.03;39.36
68634;BME280;55625;47.072;22.192;2023-04-27T09:43:51;100012.25;;;13.99;36.89
68634;BME280;55625;47.072;22.192;2023-04-27T09:46:17;100020.19;;;14.05;36.12
68634;BME280;55625;47.072;22.192;2023-04-27T09:48:44;100029.00;;;13.88;36.67
68634;BME280;55625;47.072;22.192;2023-04-27T09:51:10;100017.25;;;13.24;36.30
68634;BME280;55625;47.072;22.192;2023-04-27T09:53:54;100016.22;;;12.74;37.62
68634;BME280;55625;47.072;22.192;2023-04-27T10:02:09;100020.22;;;13.43;37.04
68634;BME280;55625;47.072;22.192;2023-04-27T10:07:38;100001.13;;;13.52;36.90
68634;BME280;55625;47.072;22.192;2023-04-27T10:10:14;100009.59;;;12.78;39.58
68634;BME280;55625;47.072;22.192;2023-04-27T10:12:40;100008.41;;;12.53;38.83
68634;BME280;55625;47.072;22.192;2023-04-27T10:15:15;100015.81;;;11.78;39.19
68634;BME280;55625;47.072;22.192;2023-04-27T10:17:50;100017.31;;;11.95;41.74
68634;BME280;55625;47.072;22.192;2023-04-27T10:20:33;100015.59;;;11.98;41.69
68634;BME280;55625;47.072;22.192;2023-04-27T10:22:59;100022.97;;;12.08;41.06
68634;BME280;55625;47.072;22.192;2023-04-27T10:25:29;100011.69;;;12.17;41.73
68634;BME280;55625;47.072;22.192;2023-04-27T10:28:02;100004.91;;;12.49;40.21
68634;BME280;55625;47.072;22.192;2023-04-27T10:30:37;100005.41;;;12.69;35.75
68634;BME280;55625;47.072;22.192;2023-04-27T10:33:10;100009.91;;;11.98;36.69
68634;BME280;55625;47.072;22.192;2023-04-27T10:35:42;100008.38;;;12.19;36.08
68634;BME280;55625;47.072;22.192;2023-04-27T10:38:21;100010.13;;;11.65;39.96
68634;BME280;55625;47.072;22.192;2023-04-27T10:40:56;100017.72;;;11.68;41.07
68634;BME280;55625;47.072;22.192;2023-04-27T10:43:30;100009.06;;;11.46;41.72
68634;BME280;55625;47.072;22.192;2023-04-27T10:46:13;100009.88;;;12.10;41.26
68634;BME280;55625;47.072;22.192;2023-04-27T10:48:43;100004.34;;;12.41;40.88
68634;BME280;55625;47.072;22.192;2023-04-27T10:51:09;100015.59;;;12.58;36.90
68634;BME280;55625;47.072;22.192;2023-04-27T10:53:39;100008.19;;;12.60;38.46
68634;BME280;55625;47.072;22.192;2023-04-27T10:56:06;100003.34;;;12.70;39.45
68634;BME280;55625;47.072;22.192;2023-04-27T10:58:33;100013.22;;;12.56;40.38
68634;BME280;55625;47.072;22.192;2023-04-27T11:00:59;100006.25;;;12.57;39.14
68634;BME280;55625;47.072;22.192;2023-04-27T11:03:25;100012.97;;;11.78;40.61
68634;BME280;55625;47.072;22.192;2023-04-27T11:06:04;100023.50;;;11.39;40.66
68634;BME280;55625;47.072;22.192;2023-04-27T11:08:30;100018.25;;;11.38;40.02
68634;BME280;55625;47.072;22.192;2023-04-27T11:10:57;100021.66;;;11.33;42.14
68634;BME280;55625;47.072;22.192;2023-04-27T11:13:25;100021.34;;;11.43;40.40
68634;BME280;55625;47.072;22.192;2023-04-27T11:15:57;100023.63;;;11.48;41.37
68634;BME280;55625;47.072;22.192;2023-04-27T11:18:30;100012.03;;;11.68;41.12
68634;BME280;55625;47.072;22.192;2023-04-27T11:21:15;100012.97;;;11.78;40.93
68634;BME280;55625;47.072;22.192;2023-04-27T11:23:42;100014.53;;;12.30;39.30
68634;BME280;55625;47.072;22.192;2023-04-27T11:26:23;100009.06;;;12.70;39.93
68634;BME280;55625;47.072;22.192;2023-04-27T11:29:01;100008.13;;;12.73;39.02
68634;BME280;55625;47.072;22.192;2023-04-27T11:31:50;100020.09;;;12.33;39.46
68634;BME280;55625;47.072;22.192;2023-04-27T11:34:22;100016.94;;;12.53;40.21
68634;BME280;55625;47.072;22.192;2023-04-27T11:36:59;100006.56;;;12.94;38.74
68634;BME280;55625;47.072;22.192;2023-04-27T11:39:37;100010.16;;;13.29;39.04
68634;BME280;55625;47.072;22.192;2023-04-27T11:42:25;100006.78;;;13.21;38.63
68634;BME280;55625;47.072;22.192;2023-04-27T11:45:04;100003.06;;;13.33;38.49
68634;BME280;55625;47.072;22.192;2023-04-27T11:47:34;100010.91;;;13.20;39.23
68634;BME280;55625;47.072;22.192;2023-04-27T11:50:05;100021.13;;;12.27;40.07
68634;BME280;55625;47.072;22.192;2023-04-27T11:52:38;100010.91;;;12.17;40.14
68634;BME280;55625;47.072;22.192;2023-04-27T11:55:05;100021.63;;;12.00;39.79
68634;BME280;55625;47.072;22.192;2023-04-27T11:57:40;100020.09;;;12.21;40.75
68634;BME280;55625;47.072;22.192;2023-04-27T12:00:07;100025.25;;;12.00;37.89
68634;BME280;55625;47.072;22.192;2023-04-27T12:02:35;100024.09;;;12.10;40.13
68634;BME280;55625;47.072;22.192;2023-04-27T12:05:03;100019.44;;;11.91;41.29
68634;BME280;55625;47.072;22.192;2023-04-27T12:07:29;100027.97;;;12.29;40.58
68634;BME280;55625;47.072;22.192;2023-04-27T12:09:55;100021.22;;;12.23;37.88
68634;BME280;55625;47.072;22.192;2023-04-27T12:12:21;100017.53;;;12.48;39.33
68634;BME280;55625;47.072;22.192;2023-04-27T12:14:49;100024.88;;;12.36;42.71
68634;BME280;55625;47.072;22.192;2023-04-27T12:17:16;100024.44;;;12.12;39.64
68634;BME280;55625;47.072;22.192;2023-04-27T12:19:42;100021.59;;;12.12;39.41
68634;BME280;55625;47.072;22.192;2023-04-27T12:22:07;100019.66;;;12.09;39.62
68634;BME280;55625;47.072;22.192;2023-04-27T12:24:34;100016.94;;;12.53;38.43
68634;BME280;55625;47.072;22.192;2023-04-27T12:27:00;100020.59;;;13.10;39.30
68634;BME280;55625;47.072;22.192;2023-04-27T12:29:28;100012.66;;;13.49;38.05
68634;BME280;55625;47.072;22.192;2023-04-27T12:31:54;100018.63;;;13.73;37.89
68634;BME280;55625;47.072;22.192;2023-04-27T12:34:20;100014.00;;;13.35;37.93
68634;BME280;55625;47.072;22.192;2023-04-27T12:36:46;100016.88;;;13.44;39.04
68634;BME280;55625;47.072;22.192;2023-04-27T12:39:20;100014.75;;;13.26;37.74
68634;BME280;55625;47.072;22.192;2023-04-27T12:41:47;100014.47;;;13.33;38.36
68634;BME280;55625;47.072;22.192;2023-04-27T12:44:15;100015.94;;;12.82;38.78
68634;BME280;55625;47.072;22.192;2023-04-27T12:46:42;100011.69;;;12.64;37.56
68634;BME280;55625;47.072;22.192;2023-04-27T12:49:09;100021.38;;;12.54;39.15
68634;BME280;55625;47.072;22.192;2023-04-27T12:51:36;100026.53;;;12.59;37.83
68634;BME280;55625;47.072;22.192;2023-04-27T12:54:03;100016.47;;;12.67;37.38
68634;BME280;55625;47.072;22.192;2023-04-27T12:56:29;100017.94;;;12.72;39.33
68634;BME280;55625;47.072;22.192;2023-04-27T12:58:55;100006.50;;;13.06;38.43
68634;BME280;55625;47.072;22.192;2023-04-27T13:01:22;99998.75;;;13.29;38.32